sensor_id;sensor_type;location;lat;lon;timestamp;P1;durP1;ratioP1;P2;durP2;ratioP2
67757;SDS011;54562;47.620;18.786;2023-05-17T00:00:57;19.70;;;9.10;;
67757;SDS011;54562;47.620;18.786;2023-05-17T00:04:04;17.70;;;9.60;;
67757;SDS011;54562;47.620;18.786;2023-05-17T00:07:10;16.90;;;10.00;;
67757;SDS011;54562;47.620;18.786;2023-05-17T00:10:17;21.40;;;9.60;;
67757;SDS011;54562;47.620;18.786;2023-05-17T00:13:23;18.90;;;10.00;;
67757;SDS011;54562;47.620;18.786;2023-05-17T00:16:30;16.00;;;9.80;;
67757;SDS011;54562;47.620;18.786;2023-05-17T00:19:36;15.90;;;9.80;;
67757;SDS011;54562;47.620;18.786;2023-05-17T00:22:43;19.40;;;10.10;;
67757;SDS011;54562;47.620;18.786;2023-05-17T00:25:50;14.40;;;10.40;;
67757;SDS011;54562;47.620;18.786;2023-05-17T00:28:56;18.70;;;10.30;;
67757;SDS011;54562;47.620;18.786;2023-05-17T00:32:03;17.80;;;10.10;;
67757;SDS011;54562;47.620;18.786;2023-05-17T00:35:10;16.10;;;9.00;;
67757;SDS011;54562;47.620;18.786;2023-05-17T00:38:18;14.80;;;9.80;;
67757;SDS011;54562;47.620;18.786;2023-05-17T00:41:25;17.80;;;10.00;;
67757;SDS011;54562;47.620;18.786;2023-05-17T00:44:31;17.30;;;9.40;;
67757;SDS011;54562;47.620;18.786;2023-05-17T00:47:37;19.30;;;9.40;;
67757;SDS011;54562;47.620;18.786;2023-05-17T00:50:44;17.90;;;9.10;;
67757;SDS011;54562;47.620;18.786;2023-05-17T00:53:51;18.10;;;9.30;;
67757;SDS011;54562;47.620;18.786;2023-05-17T00:56:58;18.30;;;10.10;;
67757;SDS011;54562;47.620;18.786;2023-05-17T01:00:04;19.90;;;9.60;;
67757;SDS011;54562;47.620;18.786;2023-05-17T01:03:13;17.20;;;8.90;;
67757;SDS011;54562;47.620;18.786;2023-05-17T01:06:20;15.20;;;9.80;;
67757;SDS011;54562;47.620;18.786;2023-05-17T01:09:26;17.00;;;9.70;;
67757;SDS011;54562;47.620;18.786;2023-05-17T01:12:36;19.90;;;9.30;;
67757;SDS011;54562;47.620;18.786;2023-05-17T01:15:50;16.60;;;9.30;;
67757;SDS011;54562;47.620;18.786;2023-05-17T01:19:01;14.80;;;9.30;;
67757;SDS011;54562;47.620;18.786;2023-05-17T01:22:26;15.80;;;9.10;;
67757;SDS011;54562;47.620;18.786;2023-05-17T01:25:45;15.50;;;9.70;;
67757;SDS011;54562;47.620;18.786;2023-05-17T01:28:59;18.90;;;9.80;;
67757;SDS011;54562;47.620;18.786;2023-05-17T01:32:06;20.40;;;10.30;;
67757;SDS011;54562;47.620;18.786;2023-05-17T01:35:14;17.30;;;10.20;;
67757;SDS011;54562;47.620;18.786;2023-05-17T01:38:21;18.40;;;10.90;;
67757;SDS011;54562;47.620;18.786;2023-05-17T01:41:29;18.60;;;10.30;;
67757;SDS011;54562;47.620;18.786;2023-05-17T01:44:39;18.40;;;11.10;;
67757;SDS011;54562;47.620;18.786;2023-05-17T01:47:52;16.00;;;10.10;;
67757;SDS011;54562;47.620;18.786;2023-05-17T01:51:04;19.90;;;10.40;;
67757;SDS011;54562;47.620;18.786;2023-05-17T01:54:10;15.50;;;10.50;;
67757;SDS011;54562;47.620;18.786;2023-05-17T01:57:19;20.00;;;10.20;;
67757;SDS011;54562;47.620;18.786;2023-05-17T02:00:32;17.00;;;9.90;;
67757;SDS011;54562;47.620;18.786;2023-05-17T02:03:39;22.60;;;10.70;;
67757;SDS011;54562;47.620;18.786;2023-05-17T02:06:45;15.50;;;9.90;;
67757;SDS011;54562;47.620;18.786;2023-05-17T02:09:51;19.00;;;9.60;;
67757;SDS011;54562;47.620;18.786;2023-05-17T02:12:58;15.10;;;9.50;;
67757;SDS011;54562;47.620;18.786;2023-05-17T02:16:05;16.70;;;10.20;;
67757;SDS011;54562;47.620;18.786;2023-05-17T02:19:14;16.10;;;10.00;;
67757;SDS011;54562;47.620;18.786;2023-05-17T02:22:22;16.80;;;9.90;;
67757;SDS011;54562;47.620;18.786;2023-05-17T02:25:29;14.50;;;8.70;;
67757;SDS011;54562;47.620;18.786;2023-05-17T02:28:36;15.90;;;9.10;;
67757;SDS011;54562;47.620;18.786;2023-05-17T02:31:42;16.70;;;9.60;;
67757;SDS011;54562;47.620;18.786;2023-05-17T02:34:49;17.50;;;10.30;;
67757;SDS011;54562;47.620;18.786;2023-05-17T02:37:55;17.80;;;9.70;;
67757;SDS011;54562;47.620;18.786;2023-05-17T02:41:02;18.30;;;11.50;;
67757;SDS011;54562;47.620;18.786;2023-05-17T02:44:09;18.90;;;11.40;;
67757;SDS011;54562;47.620;18.786;2023-05-17T02:47:15;17.90;;;10.70;;
67757;SDS011;54562;47.620;18.786;2023-05-17T02:50:23;17.40;;;11.10;;
67757;SDS011;54562;47.620;18.786;2023-05-17T02:53:29;18.80;;;10.90;;
67757;SDS011;54562;47.620;18.786;2023-05-17T02:56:36;18.00;;;10.90;;
67757;SDS011;54562;47.620;18.786;2023-05-17T02:59:43;21.60;;;11.90;;
67757;SDS011;54562;47.620;18.786;2023-05-17T03:02:50;17.70;;;11.80;;
67757;SDS011;54562;47.620;18.786;2023-05-17T03:05:59;19.30;;;11.30;;
67757;SDS011;54562;47.620;18.786;2023-05-17T03:09:07;19.00;;;11.60;;
67757;SDS011;54562;47.620;18.786;2023-05-17T03:12:13;24.50;;;12.20;;
67757;SDS011;54562;47.620;18.786;2023-05-17T03:15:20;18.00;;;12.00;;
67757;SDS011;54562;47.620;18.786;2023-05-17T03:18:29;18.40;;;12.30;;
67757;SDS011;54562;47.620;18.786;2023-05-17T03:21:35;18.90;;;12.00;;
67757;SDS011;54562;47.620;18.786;2023-05-17T03:24:42;33.10;;;11.20;;
67757;SDS011;54562;47.620;18.786;2023-05-17T03:27:50;75.60;;;11.00;;
67757;SDS011;54562;47.620;18.786;2023-05-17T03:30:56;248.30;;;14.40;;
67757;SDS011;54562;47.620;18.786;2023-05-17T03:34:04;253.80;;;15.40;;
67757;SDS011;54562;47.620;18.786;2023-05-17T03:37:11;348.70;;;17.50;;
67757;SDS011;54562;47.620;18.786;2023-05-17T03:40:20;371.10;;;16.90;;
67757;SDS011;54562;47.620;18.786;2023-05-17T03:43:28;320.90;;;15.40;;
67757;SDS011;54562;47.620;18.786;2023-05-17T03:46:35;370.30;;;16.30;;
67757;SDS011;54562;47.620;18.786;2023-05-17T03:49:42;323.90;;;15.20;;
67757;SDS011;54562;47.620;18.786;2023-05-17T03:52:48;336.80;;;15.40;;
67757;SDS011;54562;47.620;18.786;2023-05-17T03:55:55;365.80;;;17.30;;
67757;SDS011;54562;47.620;18.786;2023-05-17T03:59:01;359.40;;;15.90;;
67757;SDS011;54562;47.620;18.786;2023-05-17T04:02:09;359.80;;;16.00;;
67757;SDS011;54562;47.620;18.786;2023-05-17T04:05:16;344.70;;;15.80;;
67757;SDS011;54562;47.620;18.786;2023-05-17T04:08:23;356.20;;;16.90;;
67757;SDS011;54562;47.620;18.786;2023-05-17T04:11:30;224.50;;;15.00;;
67757;SDS011;54562;47.620;18.786;2023-05-17T04:14:36;282.60;;;17.30;;
67757;SDS011;54562;47.620;18.786;2023-05-17T04:17:43;351.20;;;18.20;;
67757;SDS011;54562;47.620;18.786;2023-05-17T04:20:54;272.50;;;15.40;;
67757;SDS011;54562;47.620;18.786;2023-05-17T04:24:01;261.70;;;15.70;;
67757;SDS011;54562;47.620;18.786;2023-05-17T04:27:08;198.60;;;13.80;;
67757;SDS011;54562;47.620;18.786;2023-05-17T04:30:15;124.80;;;12.30;;
67757;SDS011;54562;47.620;18.786;2023-05-17T04:33:23;113.30;;;12.50;;
67757;SDS011;54562;47.620;18.786;2023-05-17T04:36:31;122.80;;;12.30;;
67757;SDS011;54562;47.620;18.786;2023-05-17T04:39:37;123.50;;;11.50;;
67757;SDS011;54562;47.620;18.786;2023-05-17T04:42:45;197.50;;;13.70;;
67757;SDS011;54562;47.620;18.786;2023-05-17T04:45:56;192.00;;;12.90;;
67757;SDS011;54562;47.620;18.786;2023-05-17T04:49:02;168.80;;;12.50;;
67757;SDS011;54562;47.620;18.786;2023-05-17T04:52:09;166.30;;;14.40;;
67757;SDS011;54562;47.620;18.786;2023-05-17T04:55:16;99.70;;;11.40;;
67757;SDS011;54562;47.620;18.786;2023-05-17T04:58:22;114.00;;;13.30;;
67757;SDS011;54562;47.620;18.786;2023-05-17T05:01:30;51.00;;;10.40;;
67757;SDS011;54562;47.620;18.786;2023-05-17T05:04:37;80.00;;;12.40;;
67757;SDS011;54562;47.620;18.786;2023-05-17T05:07:44;80.90;;;12.20;;
67757;SDS011;54562;47.620;18.786;2023-05-17T05:10:51;48.10;;;11.70;;
67757;SDS011;54562;47.620;18.786;2023-05-17T05:13:58;60.90;;;12.70;;
67757;SDS011;54562;47.620;18.786;2023-05-17T05:17:06;39.90;;;11.60;;
67757;SDS011;54562;47.620;18.786;2023-05-17T05:20:13;25.40;;;11.80;;
67757;SDS011;54562;47.620;18.786;2023-05-17T05:23:20;19.90;;;11.30;;
67757;SDS011;54562;47.620;18.786;2023-05-17T05:26:27;30.60;;;11.90;;
67757;SDS011;54562;47.620;18.786;2023-05-17T05:29:34;28.80;;;11.40;;
67757;SDS011;54562;47.620;18.786;2023-05-17T05:32:40;30.40;;;11.60;;
67757;SDS011;54562;47.620;18.786;2023-05-17T05:35:47;18.90;;;11.40;;
67757;SDS011;54562;47.620;18.786;2023-05-17T05:38:53;32.70;;;11.50;;
67757;SDS011;54562;47.620;18.786;2023-05-17T05:42:00;34.80;;;12.00;;
67757;SDS011;54562;47.620;18.786;2023-05-17T05:45:09;28.80;;;11.50;;
67757;SDS011;54562;47.620;18.786;2023-05-17T05:48:16;27.30;;;11.20;;
67757;SDS011;54562;47.620;18.786;2023-05-17T05:51:22;20.80;;;10.70;;
67757;SDS011;54562;47.620;18.786;2023-05-17T05:54:32;23.60;;;11.00;;
67757;SDS011;54562;47.620;18.786;2023-05-17T05:57:38;18.70;;;10.90;;
67757;SDS011;54562;47.620;18.786;2023-05-17T06:00:45;23.30;;;11.20;;
67757;SDS011;54562;47.620;18.786;2023-05-17T06:03:52;19.40;;;11.30;;
67757;SDS011;54562;47.620;18.786;2023-05-17T06:06:59;32.10;;;11.60;;
67757;SDS011;54562;47.620;18.786;2023-05-17T06:10:06;30.40;;;11.10;;
67757;SDS011;54562;47.620;18.786;2023-05-17T06:13:14;37.50;;;11.60;;
67757;SDS011;54562;47.620;18.786;2023-05-17T06:16:22;35.50;;;11.20;;
67757;SDS011;54562;47.620;18.786;2023-05-17T06:19:29;30.60;;;11.10;;
67757;SDS011;54562;47.620;18.786;2023-05-17T06:22:36;43.80;;;11.60;;
67757;SDS011;54562;47.620;18.786;2023-05-17T06:25:42;29.50;;;11.40;;
67757;SDS011;54562;47.620;18.786;2023-05-17T06:28:50;41.70;;;10.90;;
67757;SDS011;54562;47.620;18.786;2023-05-17T06:32:00;32.40;;;12.50;;
67757;SDS011;54562;47.620;18.786;2023-05-17T06:35:07;31.80;;;12.60;;
67757;SDS011;54562;47.620;18.786;2023-05-17T06:38:14;36.40;;;12.40;;
67757;SDS011;54562;47.620;18.786;2023-05-17T06:41:21;32.90;;;12.50;;
67757;SDS011;54562;47.620;18.786;2023-05-17T06:44:28;36.20;;;13.10;;
67757;SDS011;54562;47.620;18.786;2023-05-17T06:47:36;40.50;;;13.70;;
67757;SDS011;54562;47.620;18.786;2023-05-17T06:50:43;30.20;;;12.90;;
67757;SDS011;54562;47.620;18.786;2023-05-17T06:53:50;39.00;;;14.50;;
67757;SDS011;54562;47.620;18.786;2023-05-17T06:56:56;31.40;;;14.40;;
67757;SDS011;54562;47.620;18.786;2023-05-17T07:00:05;35.90;;;14.60;;
67757;SDS011;54562;47.620;18.786;2023-05-17T07:03:13;31.70;;;14.60;;
67757;SDS011;54562;47.620;18.786;2023-05-17T07:06:21;32.10;;;14.20;;
67757;SDS011;54562;47.620;18.786;2023-05-17T07:09:29;26.00;;;13.50;;
67757;SDS011;54562;47.620;18.786;2023-05-17T07:12:35;28.90;;;13.10;;
67757;SDS011;54562;47.620;18.786;2023-05-17T07:15:42;25.40;;;13.40;;
67757;SDS011;54562;47.620;18.786;2023-05-17T07:18:50;24.70;;;12.50;;
67757;SDS011;54562;47.620;18.786;2023-05-17T07:21:56;19.30;;;10.70;;
67757;SDS011;54562;47.620;18.786;2023-05-17T07:25:05;19.00;;;9.80;;
67757;SDS011;54562;47.620;18.786;2023-05-17T07:28:12;15.00;;;9.10;;
67757;SDS011;54562;47.620;18.786;2023-05-17T07:31:19;16.30;;;8.40;;
67757;SDS011;54562;47.620;18.786;2023-05-17T07:34:26;14.50;;;8.20;;
67757;SDS011;54562;47.620;18.786;2023-05-17T07:37:34;13.00;;;8.20;;
67757;SDS011;54562;47.620;18.786;2023-05-17T07:40:42;12.20;;;7.40;;
67757;SDS011;54562;47.620;18.786;2023-05-17T07:43:49;12.00;;;7.40;;
67757;SDS011;54562;47.620;18.786;2023-05-17T07:46:58;11.80;;;6.90;;
67757;SDS011;54562;47.620;18.786;2023-05-17T07:50:05;18.60;;;10.90;;
67757;SDS011;54562;47.620;18.786;2023-05-17T07:53:12;18.30;;;11.70;;
67757;SDS011;54562;47.620;18.786;2023-05-17T07:56:22;19.60;;;11.60;;
67757;SDS011;54562;47.620;18.786;2023-05-17T07:59:28;21.90;;;11.30;;
67757;SDS011;54562;47.620;18.786;2023-05-17T08:02:36;20.10;;;11.70;;
67757;SDS011;54562;47.620;18.786;2023-05-17T08:05:42;21.50;;;12.60;;
67757;SDS011;54562;47.620;18.786;2023-05-17T08:08:49;10.40;;;6.80;;
67757;SDS011;54562;47.620;18.786;2023-05-17T08:11:56;12.40;;;8.00;;
67757;SDS011;54562;47.620;18.786;2023-05-17T08:15:04;13.20;;;6.80;;
67757;SDS011;54562;47.620;18.786;2023-05-17T08:18:11;11.20;;;6.40;;
67757;SDS011;54562;47.620;18.786;2023-05-17T08:21:19;12.10;;;6.60;;
67757;SDS011;54562;47.620;18.786;2023-05-17T08:24:26;14.80;;;7.60;;
67757;SDS011;54562;47.620;18.786;2023-05-17T08:27:34;11.40;;;6.10;;
67757;SDS011;54562;47.620;18.786;2023-05-17T08:30:42;23.40;;;11.40;;
67757;SDS011;54562;47.620;18.786;2023-05-17T08:33:48;20.30;;;11.40;;
67757;SDS011;54562;47.620;18.786;2023-05-17T08:36:55;17.60;;;10.60;;
67757;SDS011;54562;47.620;18.786;2023-05-17T08:40:02;22.40;;;11.80;;
67757;SDS011;54562;47.620;18.786;2023-05-17T08:43:09;19.60;;;11.20;;
67757;SDS011;54562;47.620;18.786;2023-05-17T08:46:18;18.30;;;10.40;;
67757;SDS011;54562;47.620;18.786;2023-05-17T08:49:26;19.90;;;10.20;;
67757;SDS011;54562;47.620;18.786;2023-05-17T08:52:35;16.70;;;9.50;;
67757;SDS011;54562;47.620;18.786;2023-05-17T08:55:44;16.60;;;9.80;;
67757;SDS011;54562;47.620;18.786;2023-05-17T08:58:51;15.10;;;9.20;;
67757;SDS011;54562;47.620;18.786;2023-05-17T09:02:00;17.20;;;9.70;;
67757;SDS011;54562;47.620;18.786;2023-05-17T09:05:07;15.20;;;9.20;;
67757;SDS011;54562;47.620;18.786;2023-05-17T09:08:16;14.70;;;8.40;;
67757;SDS011;54562;47.620;18.786;2023-05-17T09:11:27;17.60;;;7.70;;
67757;SDS011;54562;47.620;18.786;2023-05-17T09:14:35;13.30;;;7.50;;
67757;SDS011;54562;47.620;18.786;2023-05-17T09:17:41;11.40;;;6.80;;
67757;SDS011;54562;47.620;18.786;2023-05-17T09:20:50;12.00;;;7.40;;
67757;SDS011;54562;47.620;18.786;2023-05-17T09:23:56;13.70;;;7.20;;
67757;SDS011;54562;47.620;18.786;2023-05-17T09:27:07;16.10;;;7.20;;
67757;SDS011;54562;47.620;18.786;2023-05-17T09:30:18;11.80;;;7.60;;
67757;SDS011;54562;47.620;18.786;2023-05-17T09:33:31;12.00;;;7.60;;
67757;SDS011;54562;47.620;18.786;2023-05-17T09:36:39;12.70;;;8.10;;
67757;SDS011;54562;47.620;18.786;2023-05-17T09:39:47;12.70;;;8.40;;
67757;SDS011;54562;47.620;18.786;2023-05-17T09:42:54;13.40;;;8.20;;
67757;SDS011;54562;47.620;18.786;2023-05-17T09:46:00;17.90;;;8.10;;
67757;SDS011;54562;47.620;18.786;2023-05-17T09:49:06;14.70;;;8.60;;
67757;SDS011;54562;47.620;18.786;2023-05-17T09:52:15;11.80;;;7.50;;
67757;SDS011;54562;47.620;18.786;2023-05-17T09:58:31;9.50;;;4.90;;
67757;SDS011;54562;47.620;18.786;2023-05-17T10:01:40;11.30;;;6.50;;
67757;SDS011;54562;47.620;18.786;2023-05-17T10:04:49;12.30;;;6.80;;
67757;SDS011;54562;47.620;18.786;2023-05-17T10:07:55;9.80;;;5.80;;
67757;SDS011;54562;47.620;18.786;2023-05-17T10:11:04;9.80;;;5.30;;
67757;SDS011;54562;47.620;18.786;2023-05-17T10:14:14;10.10;;;5.40;;
67757;SDS011;54562;47.620;18.786;2023-05-17T10:17:25;8.60;;;5.40;;
67757;SDS011;54562;47.620;18.786;2023-05-17T10:20:32;10.50;;;6.20;;
67757;SDS011;54562;47.620;18.786;2023-05-17T10:23:39;8.10;;;5.50;;
67757;SDS011;54562;47.620;18.786;2023-05-17T10:26:46;10.90;;;6.40;;
67757;SDS011;54562;47.620;18.786;2023-05-17T10:29:54;10.60;;;6.40;;
67757;SDS011;54562;47.620;18.786;2023-05-17T10:33:02;9.50;;;6.10;;
67757;SDS011;54562;47.620;18.786;2023-05-17T10:36:08;8.00;;;5.30;;
67757;SDS011;54562;47.620;18.786;2023-05-17T10:39:15;8.60;;;5.70;;
67757;SDS011;54562;47.620;18.786;2023-05-17T10:42:22;8.10;;;5.50;;
67757;SDS011;54562;47.620;18.786;2023-05-17T10:45:29;8.30;;;5.30;;
67757;SDS011;54562;47.620;18.786;2023-05-17T10:48:35;8.80;;;5.80;;
67757;SDS011;54562;47.620;18.786;2023-05-17T10:51:42;8.80;;;5.50;;
67757;SDS011;54562;47.620;18.786;2023-05-17T10:54:51;10.90;;;6.10;;
67757;SDS011;54562;47.620;18.786;2023-05-17T10:58:15;9.30;;;5.90;;
67757;SDS011;54562;47.620;18.786;2023-05-17T11:05:11;12.20;;;5.90;;
67757;SDS011;54562;47.620;18.786;2023-05-17T11:08:30;9.60;;;6.10;;
67757;SDS011;54562;47.620;18.786;2023-05-17T11:11:37;11.70;;;6.20;;
67757;SDS011;54562;47.620;18.786;2023-05-17T11:15:10;9.10;;;6.00;;
67757;SDS011;54562;47.620;18.786;2023-05-17T11:18:18;9.90;;;5.90;;
67757;SDS011;54562;47.620;18.786;2023-05-17T11:21:35;13.00;;;6.80;;
67757;SDS011;54562;47.620;18.786;2023-05-17T11:24:41;14.40;;;6.50;;
67757;SDS011;54562;47.620;18.786;2023-05-17T11:27:50;10.70;;;5.90;;
67757;SDS011;54562;47.620;18.786;2023-05-17T11:31:00;12.00;;;6.20;;
67757;SDS011;54562;47.620;18.786;2023-05-17T11:34:08;10.80;;;5.90;;
67757;SDS011;54562;47.620;18.786;2023-05-17T11:37:16;8.50;;;5.60;;
67757;SDS011;54562;47.620;18.786;2023-05-17T11:40:31;10.50;;;5.30;;
67757;SDS011;54562;47.620;18.786;2023-05-17T11:43:37;11.90;;;6.40;;
67757;SDS011;54562;47.620;18.786;2023-05-17T11:47:00;15.10;;;6.10;;
67757;SDS011;54562;47.620;18.786;2023-05-17T11:50:08;11.50;;;5.90;;
67757;SDS011;54562;47.620;18.786;2023-05-17T11:53:17;11.10;;;5.60;;
67757;SDS011;54562;47.620;18.786;2023-05-17T11:56:27;10.30;;;5.20;;
67757;SDS011;54562;47.620;18.786;2023-05-17T11:59:44;10.10;;;4.80;;
67757;SDS011;54562;47.620;18.786;2023-05-17T12:02:51;9.50;;;4.70;;
67757;SDS011;54562;47.620;18.786;2023-05-17T12:06:03;10.10;;;4.80;;
67757;SDS011;54562;47.620;18.786;2023-05-17T12:09:12;7.50;;;3.70;;
67757;SDS011;54562;47.620;18.786;2023-05-17T12:12:20;7.00;;;3.60;;
67757;SDS011;54562;47.620;18.786;2023-05-17T12:15:27;6.00;;;3.50;;
67757;SDS011;54562;47.620;18.786;2023-05-17T12:18:34;6.70;;;3.50;;
67757;SDS011;54562;47.620;18.786;2023-05-17T12:21:42;8.10;;;3.30;;
67757;SDS011;54562;47.620;18.786;2023-05-17T12:24:48;7.70;;;4.00;;
67757;SDS011;54562;47.620;18.786;2023-05-17T12:27:55;6.60;;;3.70;;
67757;SDS011;54562;47.620;18.786;2023-05-17T12:31:19;6.40;;;3.50;;
67757;SDS011;54562;47.620;18.786;2023-05-17T12:34:28;8.30;;;3.40;;
67757;SDS011;54562;47.620;18.786;2023-05-17T12:37:35;9.10;;;3.70;;
67757;SDS011;54562;47.620;18.786;2023-05-17T12:40:42;8.50;;;3.80;;
67757;SDS011;54562;47.620;18.786;2023-05-17T12:43:50;9.40;;;3.80;;
67757;SDS011;54562;47.620;18.786;2023-05-17T12:47:16;7.10;;;3.70;;
67757;SDS011;54562;47.620;18.786;2023-05-17T12:50:26;7.20;;;3.80;;
67757;SDS011;54562;47.620;18.786;2023-05-17T12:53:37;10.70;;;4.20;;
67757;SDS011;54562;47.620;18.786;2023-05-17T12:56:45;8.70;;;4.30;;
67757;SDS011;54562;47.620;18.786;2023-05-17T12:59:52;7.50;;;5.00;;
67757;SDS011;54562;47.620;18.786;2023-05-17T13:02:59;7.80;;;4.90;;
67757;SDS011;54562;47.620;18.786;2023-05-17T13:06:09;9.60;;;5.60;;
67757;SDS011;54562;47.620;18.786;2023-05-17T13:09:15;10.30;;;5.10;;
67757;SDS011;54562;47.620;18.786;2023-05-17T13:12:23;10.70;;;5.40;;
67757;SDS011;54562;47.620;18.786;2023-05-17T13:15:30;9.80;;;5.30;;
67757;SDS011;54562;47.620;18.786;2023-05-17T13:18:50;8.40;;;5.40;;
67757;SDS011;54562;47.620;18.786;2023-05-17T13:21:58;12.20;;;5.70;;
67757;SDS011;54562;47.620;18.786;2023-05-17T13:25:05;10.70;;;5.50;;
67757;SDS011;54562;47.620;18.786;2023-05-17T13:28:11;9.00;;;5.20;;
67757;SDS011;54562;47.620;18.786;2023-05-17T13:31:19;8.50;;;4.60;;
67757;SDS011;54562;47.620;18.786;2023-05-17T13:34:26;8.10;;;4.70;;
67757;SDS011;54562;47.620;18.786;2023-05-17T13:37:32;10.20;;;4.30;;
67757;SDS011;54562;47.620;18.786;2023-05-17T13:40:39;8.90;;;3.60;;
67757;SDS011;54562;47.620;18.786;2023-05-17T13:43:45;7.60;;;3.50;;
67757;SDS011;54562;47.620;18.786;2023-05-17T13:46:52;8.00;;;3.90;;
67757;SDS011;54562;47.620;18.786;2023-05-17T13:50:00;5.70;;;3.20;;
67757;SDS011;54562;47.620;18.786;2023-05-17T13:53:08;6.60;;;3.60;;
67757;SDS011;54562;47.620;18.786;2023-05-17T13:56:15;7.40;;;3.70;;
67757;SDS011;54562;47.620;18.786;2023-05-17T13:59:21;7.80;;;3.50;;
67757;SDS011;54562;47.620;18.786;2023-05-17T14:02:28;8.90;;;3.60;;
67757;SDS011;54562;47.620;18.786;2023-05-17T14:05:35;9.10;;;3.30;;
67757;SDS011;54562;47.620;18.786;2023-05-17T14:08:42;5.90;;;3.30;;
67757;SDS011;54562;47.620;18.786;2023-05-17T14:11:49;6.20;;;2.90;;
67757;SDS011;54562;47.620;18.786;2023-05-17T14:14:56;7.30;;;3.00;;
67757;SDS011;54562;47.620;18.786;2023-05-17T14:18:03;6.10;;;2.90;;
67757;SDS011;54562;47.620;18.786;2023-05-17T14:21:09;7.20;;;2.80;;
67757;SDS011;54562;47.620;18.786;2023-05-17T14:24:17;5.80;;;2.90;;
67757;SDS011;54562;47.620;18.786;2023-05-17T14:27:25;5.70;;;2.70;;
67757;SDS011;54562;47.620;18.786;2023-05-17T14:30:31;5.10;;;2.70;;
67757;SDS011;54562;47.620;18.786;2023-05-17T14:33:38;5.50;;;2.80;;
67757;SDS011;54562;47.620;18.786;2023-05-17T14:36:44;6.10;;;2.80;;
67757;SDS011;54562;47.620;18.786;2023-05-17T14:39:51;5.70;;;3.10;;
67757;SDS011;54562;47.620;18.786;2023-05-17T14:43:09;7.70;;;2.90;;
67757;SDS011;54562;47.620;18.786;2023-05-17T14:46:15;5.80;;;2.80;;
67757;SDS011;54562;47.620;18.786;2023-05-17T14:49:22;6.20;;;2.70;;
67757;SDS011;54562;47.620;18.786;2023-05-17T14:52:28;5.20;;;2.80;;
67757;SDS011;54562;47.620;18.786;2023-05-17T14:55:35;5.20;;;2.50;;
67757;SDS011;54562;47.620;18.786;2023-05-17T14:58:42;5.40;;;2.70;;
67757;SDS011;54562;47.620;18.786;2023-05-17T15:01:49;5.50;;;2.90;;
67757;SDS011;54562;47.620;18.786;2023-05-17T15:04:56;5.10;;;2.70;;
67757;SDS011;54562;47.620;18.786;2023-05-17T15:08:06;7.50;;;3.30;;
67757;SDS011;54562;47.620;18.786;2023-05-17T15:11:13;7.30;;;3.00;;
67757;SDS011;54562;47.620;18.786;2023-05-17T15:14:20;6.40;;;3.00;;
67757;SDS011;54562;47.620;18.786;2023-05-17T15:17:27;6.80;;;3.00;;
67757;SDS011;54562;47.620;18.786;2023-05-17T15:20:36;5.80;;;2.50;;
67757;SDS011;54562;47.620;18.786;2023-05-17T15:23:43;7.20;;;2.90;;
67757;SDS011;54562;47.620;18.786;2023-05-17T15:26:50;5.00;;;2.60;;
67757;SDS011;54562;47.620;18.786;2023-05-17T15:29:56;5.10;;;2.70;;
67757;SDS011;54562;47.620;18.786;2023-05-17T15:33:04;5.30;;;2.50;;
67757;SDS011;54562;47.620;18.786;2023-05-17T15:36:11;6.00;;;2.80;;
67757;SDS011;54562;47.620;18.786;2023-05-17T15:39:19;6.70;;;2.60;;
67757;SDS011;54562;47.620;18.786;2023-05-17T15:42:26;5.70;;;3.10;;
67757;SDS011;54562;47.620;18.786;2023-05-17T15:45:33;5.80;;;2.50;;
67757;SDS011;54562;47.620;18.786;2023-05-17T15:48:40;6.40;;;2.60;;
67757;SDS011;54562;47.620;18.786;2023-05-17T15:51:48;5.40;;;2.70;;
67757;SDS011;54562;47.620;18.786;2023-05-17T15:54:55;5.60;;;2.60;;
67757;SDS011;54562;47.620;18.786;2023-05-17T15:58:01;4.60;;;2.30;;
67757;SDS011;54562;47.620;18.786;2023-05-17T16:01:11;5.40;;;2.40;;
67757;SDS011;54562;47.620;18.786;2023-05-17T16:04:19;5.50;;;2.50;;
67757;SDS011;54562;47.620;18.786;2023-05-17T16:07:27;5.20;;;2.40;;
67757;SDS011;54562;47.620;18.786;2023-05-17T16:10:35;4.70;;;2.50;;
67757;SDS011;54562;47.620;18.786;2023-05-17T16:13:41;5.40;;;2.60;;
67757;SDS011;54562;47.620;18.786;2023-05-17T16:16:48;7.30;;;3.00;;
67757;SDS011;54562;47.620;18.786;2023-05-17T16:19:56;6.10;;;2.80;;
67757;SDS011;54562;47.620;18.786;2023-05-17T16:23:03;5.50;;;2.60;;
67757;SDS011;54562;47.620;18.786;2023-05-17T16:26:09;5.30;;;2.70;;
67757;SDS011;54562;47.620;18.786;2023-05-17T16:29:16;5.10;;;2.80;;
67757;SDS011;54562;47.620;18.786;2023-05-17T16:32:24;6.60;;;2.70;;
67757;SDS011;54562;47.620;18.786;2023-05-17T16:35:30;5.40;;;2.80;;
67757;SDS011;54562;47.620;18.786;2023-05-17T16:38:37;6.70;;;2.80;;
67757;SDS011;54562;47.620;18.786;2023-05-17T16:41:45;5.20;;;2.80;;
67757;SDS011;54562;47.620;18.786;2023-05-17T16:44:53;5.60;;;3.10;;
67757;SDS011;54562;47.620;18.786;2023-05-17T16:47:59;5.30;;;2.70;;
67757;SDS011;54562;47.620;18.786;2023-05-17T16:51:08;5.90;;;3.00;;
67757;SDS011;54562;47.620;18.786;2023-05-17T16:54:16;5.60;;;2.90;;
67757;SDS011;54562;47.620;18.786;2023-05-17T16:57:23;6.60;;;3.40;;
67757;SDS011;54562;47.620;18.786;2023-05-17T17:00:30;5.80;;;3.20;;
67757;SDS011;54562;47.620;18.786;2023-05-17T17:03:37;6.50;;;3.00;;
67757;SDS011;54562;47.620;18.786;2023-05-17T17:06:44;6.40;;;3.40;;
67757;SDS011;54562;47.620;18.786;2023-05-17T17:09:50;6.20;;;3.50;;
67757;SDS011;54562;47.620;18.786;2023-05-17T17:12:57;5.60;;;2.90;;
67757;SDS011;54562;47.620;18.786;2023-05-17T17:16:04;6.00;;;3.50;;
67757;SDS011;54562;47.620;18.786;2023-05-17T17:19:11;5.80;;;3.30;;
67757;SDS011;54562;47.620;18.786;2023-05-17T17:22:18;7.90;;;4.00;;
67757;SDS011;54562;47.620;18.786;2023-05-17T17:25:24;7.40;;;3.50;;
67757;SDS011;54562;47.620;18.786;2023-05-17T17:28:31;7.10;;;3.70;;
67757;SDS011;54562;47.620;18.786;2023-05-17T17:31:38;8.70;;;3.90;;
67757;SDS011;54562;47.620;18.786;2023-05-17T17:34:45;10.30;;;3.90;;
67757;SDS011;54562;47.620;18.786;2023-05-17T17:37:52;8.00;;;4.10;;
67757;SDS011;54562;47.620;18.786;2023-05-17T17:41:00;7.40;;;4.10;;
67757;SDS011;54562;47.620;18.786;2023-05-17T17:44:07;7.30;;;4.10;;
67757;SDS011;54562;47.620;18.786;2023-05-17T17:47:13;8.50;;;4.40;;
67757;SDS011;54562;47.620;18.786;2023-05-17T17:50:20;9.50;;;4.60;;
67757;SDS011;54562;47.620;18.786;2023-05-17T17:53:27;7.40;;;4.10;;
67757;SDS011;54562;47.620;18.786;2023-05-17T17:56:33;8.00;;;4.80;;
67757;SDS011;54562;47.620;18.786;2023-05-17T17:59:40;8.70;;;4.80;;
67757;SDS011;54562;47.620;18.786;2023-05-17T18:02:46;9.70;;;4.70;;
67757;SDS011;54562;47.620;18.786;2023-05-17T18:05:53;8.30;;;5.00;;
67757;SDS011;54562;47.620;18.786;2023-05-17T18:08:59;9.40;;;5.10;;
67757;SDS011;54562;47.620;18.786;2023-05-17T18:12:06;7.70;;;4.50;;
67757;SDS011;54562;47.620;18.786;2023-05-17T18:15:13;8.40;;;4.80;;
67757;SDS011;54562;47.620;18.786;2023-05-17T18:18:19;7.30;;;4.70;;
67757;SDS011;54562;47.620;18.786;2023-05-17T18:21:26;8.10;;;4.70;;
67757;SDS011;54562;47.620;18.786;2023-05-17T18:24:33;9.00;;;5.00;;